Time;durP1;ratioP1;P1;durP2;ratioP2;P2;SDS_P1;SDS_P2;PMS_P1;PMS_P2;Temp;Humidity;BMP_temperature;BMP_pressure;BME280_temperature;BME280_humidity;BME280_pressure;Samples;Min_cycle;Max_cycle;Signal;HPM_P1;HPM_P2
2021/07/24 00:01:32;;;;;;;;;;;;;;;17.38;69.51;101257.75;5075906;28;19908;-36
2021/07/24 00:03:57;;;;;;;;;;;;;;;17.35;69.24;101252.78;5076183;28;19908;-36
2021/07/24 00:06:23;;;;;;;;;;;;;;;17.34;71.07;101251.16;5076632;28;19930;-36
2021/07/24 00:08:48;;;;;;;;;;;;;;;17.30;70.32;101258.25;5075786;28;19947;-36
2021/07/24 00:11:13;;;;;;;;;;;;;;;17.25;70.90;101257.13;5075478;28;20280;-36
2021/07/24 00:13:39;;;;;;;;;;;;;;;17.23;70.39;101256.56;5075903;28;20003;-36
2021/07/24 00:16:05;;;;;;;;;;;;;;;17.26;70.33;101255.22;5075713;28;19908;-36
2021/07/24 00:18:31;;;;;;;;;;;;;;;17.29;70.10;101251.13;5075525;28;19915;-36
2021/07/24 00:20:56;;;;;;;;;;;;;;;17.28;69.99;101252.22;5075330;28;19934;-36
2021/07/24 00:23:21;;;;;;;;;;;;;;;17.27;70.29;101248.66;5075484;28;19908;-36
2021/07/24 00:25:46;;;;;;;;;;;;;;;17.28;69.50;101254.97;5076190;28;19916;-36
2021/07/24 00:28:12;;;;;;;;;;;;;;;17.29;69.66;101254.69;5075696;28;19908;-36
2021/07/24 00:30:38;;;;;;;;;;;;;;;17.28;70.68;101247.59;5075781;28;19947;-36
2021/07/24 00:33:03;;;;;;;;;;;;;;;17.26;69.93;101249.75;5075470;28;19908;-36
2021/07/24 00:35:28;;;;;;;;;;;;;;;17.29;69.53;101248.41;5076404;28;20328;-36
2021/07/24 00:37:53;;;;;;;;;;;;;;;17.29;70.41;101243.75;5075305;28;19908;-36
2021/07/24 00:40:20;;;;;;;;;;;;;;;17.24;69.93;101236.34;5075796;28;19912;-36
2021/07/24 00:42:48;;;;;;;;;;;;;;;17.19;70.19;101232.78;5075126;28;19912;-36
2021/07/24 00:45:16;;;;;;;;;;;;;;;17.18;69.88;101237.41;5075106;28;19908;-36
2021/07/24 00:47:43;;;;;;;;;;;;;;;17.17;70.33;101238.47;5074979;28;19912;-36
2021/07/24 00:50:12;;;;;;;;;;;;;;;17.11;72.05;101236.00;5075399;28;19991;-36
2021/07/24 00:52:42;;;;;;;;;;;;;;;17.05;70.35;101231.59;5075075;28;20233;-36
2021/07/24 00:55:08;;;;;;;;;;;;;;;17.02;70.84;101219.28;5074496;28;20353;-36
2021/07/24 00:57:34;;;;;;;;;;;;;;;17.01;70.17;101217.63;5075434;28;19915;-36
2021/07/24 01:00:00;;;;;;;;;;;;;;;17.04;70.52;101219.84;5074450;28;19912;-36
2021/07/24 01:02:25;;;;;;;;;;;;;;;16.99;71.55;101211.63;5074973;28;19909;-36
2021/07/24 01:04:50;;;;;;;;;;;;;;;16.93;71.46;101201.75;5074291;28;19912;-36
2021/07/24 01:07:16;;;;;;;;;;;;;;;16.89;71.66;101193.28;5073993;28;19908;-36
2021/07/24 01:09:41;;;;;;;;;;;;;;;16.88;71.03;101183.41;5074625;28;19908;-36
2021/07/24 01:12:07;;;;;;;;;;;;;;;16.91;71.25;101182.06;5075138;28;19962;-36
2021/07/24 01:14:32;;;;;;;;;;;;;;;16.88;71.63;101166.22;5074463;28;19912;-36
2021/07/24 01:16:57;;;;;;;;;;;;;;;16.86;71.26;101165.66;5074271;28;19908;-36
2021/07/24 01:19:23;;;;;;;;;;;;;;;16.80;71.41;101169.47;5074894;28;20332;-36
2021/07/24 01:21:48;;;;;;;;;;;;;;;16.81;71.39;101169.19;5074750;28;19935;-36
2021/07/24 01:24:13;;;;;;;;;;;;;;;16.81;72.53;101171.91;5072681;28;19912;-36
2021/07/24 01:26:43;;;;;;;;;;;;;;;16.73;72.42;101173.22;5074548;28;19908;-36
2021/07/24 01:29:12;;;;;;;;;;;;;;;16.68;71.66;101164.16;5074150;28;19927;-36
2021/07/24 01:31:37;;;;;;;;;;;;;;;16.64;73.38;101163.88;5074707;28;19959;-36
2021/07/24 01:34:02;;;;;;;;;;;;;;;16.56;73.96;101158.09;5074216;28;19970;-36
2021/07/24 01:36:28;;;;;;;;;;;;;;;16.50;73.47;101168.16;5074416;28;20022;-36
2021/07/24 01:38:54;;;;;;;;;;;;;;;16.50;72.28;101154.50;5073980;28;19915;-36
2021/07/24 01:41:19;;;;;;;;;;;;;;;16.50;73.27;101176.34;5074880;28;19908;-36
2021/07/24 01:43:44;;;;;;;;;;;;;;;16.47;72.69;101171.41;5073944;28;19930;-36
2021/07/24 01:46:09;;;;;;;;;;;;;;;16.48;72.56;101171.13;5073907;28;19908;-36
2021/07/24 01:53:47;;;;;;;;;;;;;;;16.28;74.01;101161.97;5073844;28;19978;-36
2021/07/24 01:56:15;;;;;;;;;;;;;;;16.23;75.19;101163.56;5073555;28;20341;-36
2021/07/24 01:58:40;;;;;;;;;;;;;;;16.23;73.54;101163.56;5074115;28;19948;-36
2021/07/24 02:01:06;;;;;;;;;;;;;;;16.20;75.91;101163.25;5073093;28;19915;-36
2021/07/24 02:03:44;;;;;;;;;;;;;;;16.16;75.67;101170.34;5073446;28;20356;-36
2021/07/24 02:06:10;;;;;;;;;;;;;;;16.16;74.11;101171.16;5073482;28;19912;-36
2021/07/24 02:08:35;;;;;;;;;;;;;;;16.17;74.53;101170.06;5073564;28;19908;-36
2021/07/24 02:11:02;;;;;;;;;;;;;;;16.16;74.55;101159.44;5074327;28;19909;-36
2021/07/24 02:13:27;;;;;;;;;;;;;;;16.13;73.98;101149.84;5073165;28;19912;-36
2021/07/24 02:15:53;;;;;;;;;;;;;;;16.14;73.62;101147.94;5073796;28;19909;-36
2021/07/24 02:18:19;;;;;;;;;;;;;;;16.15;74.80;101138.66;5073452;28;19966;-36
2021/07/24 02:20:45;;;;;;;;;;;;;;;16.16;73.44;101143.88;5073648;28;19954;-36
2021/07/24 02:23:10;;;;;;;;;;;;;;;16.19;73.30;101137.88;5073964;28;20228;-36
2021/07/24 02:25:36;;;;;;;;;;;;;;;16.17;73.63;101131.88;5074131;28;19908;-36
2021/07/24 02:28:01;;;;;;;;;;;;;;;16.18;73.47;101136.25;5073408;28;19919;-36
2021/07/24 02:30:26;;;;;;;;;;;;;;;16.19;73.81;101128.88;5073377;28;20288;-36
2021/07/24 02:32:51;;;;;;;;;;;;;;;16.08;76.10;101132.63;5073450;28;19948;-36
2021/07/24 02:35:17;;;;;;;;;;;;;;;16.07;73.80;101125.53;5072509;28;20260;-36
2021/07/24 02:37:42;;;;;;;;;;;;;;;16.08;73.14;101114.34;5073080;28;19923;-36
2021/07/24 02:40:08;;;;;;;;;;;;;;;16.12;74.17;101120.94;5073954;28;19919;-36
2021/07/24 02:42:33;;;;;;;;;;;;;;;16.10;73.56;101109.44;5073495;28;19962;-36
2021/07/24 02:44:59;;;;;;;;;;;;;;;16.04;74.80;101091.41;5073324;28;19916;-36
2021/07/24 02:47:24;;;;;;;;;;;;;;;15.94;75.88;101072.22;5073482;28;19999;-36
2021/07/24 02:49:49;;;;;;;;;;;;;;;15.86;76.42;101069.97;5073312;28;20083;-36
2021/07/24 02:52:14;;;;;;;;;;;;;;;15.83;76.34;101073.25;5073469;28;20394;-36
2021/07/24 02:54:40;;;;;;;;;;;;;;;15.81;76.68;101061.75;5073842;28;19912;-36
2021/07/24 02:57:05;;;;;;;;;;;;;;;15.81;75.56;101069.94;5073800;28;19915;-36
2021/07/24 02:59:30;;;;;;;;;;;;;;;15.78;76.52;101059.56;5073032;28;19931;-36
2021/07/24 03:01:56;;;;;;;;;;;;;;;15.72;77.07;101044.25;5073095;28;19909;-36
2021/07/24 03:04:21;;;;;;;;;;;;;;;15.67;77.78;101029.50;5073040;28;19969;-36
2021/07/24 03:06:46;;;;;;;;;;;;;;;15.57;77.98;101018.47;5073605;28;20259;-36
2021/07/24 03:09:12;;;;;;;;;;;;;;;15.50;78.94;101014.31;5073360;28;19909;-36
2021/07/24 03:11:37;;;;;;;;;;;;;;;15.51;76.86;101016.78;5074057;28;20310;-36
2021/07/24 03:14:02;;;;;;;;;;;;;;;15.54;78.53;101019.00;5077410;28;20282;-36
2021/07/24 03:16:28;;;;;;;;;;;;;;;15.43;79.17;101018.09;5076781;28;19912;-36
2021/07/24 03:18:53;;;;;;;;;;;;;;;15.40;78.81;101015.88;5076616;28;19954;-36
2021/07/24 03:21:19;;;;;;;;;;;;;;;15.40;78.22;101012.31;5076607;28;19920;-36
2021/07/24 03:23:44;;;;;;;;;;;;;;;15.36;78.86;101011.19;5076234;28;19908;-36
2021/07/24 03:26:09;;;;;;;;;;;;;;;15.32;79.59;101018.22;5077218;28;19932;-36
2021/07/24 03:28:35;;;;;;;;;;;;;;;15.34;79.01;101013.38;5076455;28;20011;-36
2021/07/24 03:31:00;;;;;;;;;;;;;;;15.37;78.79;101024.56;5076814;28;19908;-36
2021/07/24 03:33:25;;;;;;;;;;;;;;;15.34;79.41;101021.53;5076411;28;20303;-36
2021/07/24 03:35:51;;;;;;;;;;;;;;;15.27;80.33;101029.91;5076177;28;19908;-36
2021/07/24 03:38:16;;;;;;;;;;;;;;;15.28;79.65;101026.13;5076363;28;19915;-36
2021/07/24 03:40:43;;;;;;;;;;;;;;;15.32;78.35;101029.13;5076119;28;20348;-36
2021/07/24 03:43:08;;;;;;;;;;;;;;;15.30;79.88;101042.19;5076253;28;19908;-35
2021/07/24 03:45:33;;;;;;;;;;;;;;;15.27;80.53;101039.97;5076779;28;19919;-36
2021/07/24 03:48:00;;;;;;;;;;;;;;;15.32;79.08;101035.41;5076086;28;20344;-36
2021/07/24 03:50:25;;;;;;;;;;;;;;;15.32;79.81;101034.59;5076875;28;19908;-36
2021/07/24 03:52:50;;;;;;;;;;;;;;;15.31;80.09;101036.50;5075988;28;19996;-36
2021/07/24 03:55:15;;;;;;;;;;;;;;;15.34;78.90;101054.25;5076350;28;20302;-36
2021/07/24 03:57:41;;;;;;;;;;;;;;;15.37;79.87;101059.16;5076097;28;20003;-36
2021/07/24 04:00:06;;;;;;;;;;;;;;;15.37;78.33;101054.56;5076776;28;19912;-36
2021/07/24 04:02:32;;;;;;;;;;;;;;;15.42;77.94;101051.88;5076245;28;19915;-36
2021/07/24 04:04:58;;;;;;;;;;;;;;;15.46;78.61;101052.16;5075949;28;19930;-36
2021/07/24 04:07:23;;;;;;;;;;;;;;;15.46;78.91;101054.88;5075997;28;19908;-36
2021/07/24 04:09:49;;;;;;;;;;;;;;;15.50;78.24;101066.09;5075836;28;19988;-36
2021/07/24 04:12:14;;;;;;;;;;;;;;;15.54;77.58;101070.78;5076084;28;20348;-36
2021/07/24 04:14:40;;;;;;;;;;;;;;;15.59;77.64;101081.72;5075893;28;19915;-36
2021/07/24 04:17:06;;;;;;;;;;;;;;;15.59;78.67;101081.72;5075996;28;19908;-36
2021/07/24 04:19:31;;;;;;;;;;;;;;;15.58;77.82;101088.25;5075352;28;20040;-36
2021/07/24 04:21:56;;;;;;;;;;;;;;;15.56;77.72;101095.03;5076393;28;20007;-36
2021/07/24 04:24:22;;;;;;;;;;;;;;;15.54;79.38;101098.03;5074570;28;19923;-36
2021/07/24 04:26:47;;;;;;;;;;;;;;;15.52;79.24;101102.94;5075203;28;19916;-36
2021/07/24 04:29:12;;;;;;;;;;;;;;;15.53;78.30;101099.13;5075454;28;19912;-36
2021/07/24 04:31:38;;;;;;;;;;;;;;;15.57;79.19;101093.97;5075194;28;19936;-36
2021/07/24 04:34:03;;;;;;;;;;;;;;;15.59;79.02;101070.00;5075279;28;20352;-36
2021/07/24 04:36:28;;;;;;;;;;;;;;;15.60;79.26;101041.66;5076170;28;19919;-36
2021/07/24 04:38:53;;;;;;;;;;;;;;;15.60;79.24;101020.66;5074941;28;19930;-36
2021/07/24 04:41:20;;;;;;;;;;;;;;;15.64;79.47;101005.47;5075677;28;19908;-36
2021/07/24 04:43:46;;;;;;;;;;;;;;;15.68;78.84;101003.88;5075095;28;19998;-36
2021/07/24 04:46:12;;;;;;;;;;;;;;;15.71;78.35;101018.88;5075082;28;19951;-36
2021/07/24 04:48:37;;;;;;;;;;;;;;;15.77;78.91;101036.13;5074896;28;20356;-36
2021/07/24 04:51:04;;;;;;;;;;;;;;;15.81;78.05;101053.56;5075329;28;20324;-36
2021/07/24 04:53:29;;;;;;;;;;;;;;;15.78;79.41;101048.66;5075457;28;19963;-36
2021/07/24 04:55:55;;;;;;;;;;;;;;;15.66;80.31;101052.41;5075074;28;19916;-36
2021/07/24 04:58:21;;;;;;;;;;;;;;;15.62;80.70;101055.88;5075177;28;20002;-36
2021/07/24 05:00:47;;;;;;;;;;;;;;;15.62;80.46;101062.13;5075610;28;19916;-36
2021/07/24 05:03:13;;;;;;;;;;;;;;;15.62;80.43;101051.22;5074752;28;20367;-36
2021/07/24 05:05:38;;;;;;;;;;;;;;;15.63;79.84;101046.59;5075040;28;19908;-36
2021/07/24 05:08:07;;;;;;;;;;;;;;;15.60;81.16;101053.38;5074968;28;19915;-36
2021/07/24 05:10:32;;;;;;;;;;;;;;;15.52;81.80;101048.41;5075150;28;19946;-36
2021/07/24 05:12:57;;;;;;;;;;;;;;;15.50;81.10;101053.28;5074826;28;19909;-36
2021/07/24 05:15:24;;;;;;;;;;;;;;;15.58;80.13;101055.56;5074431;28;19909;-36
2021/07/24 05:17:49;;;;;;;;;;;;;;;15.60;81.04;101045.19;5074469;28;20324;-36
2021/07/24 05:20:14;;;;;;;;;;;;;;;15.67;80.59;101045.03;5074668;28;19915;-36
2021/07/24 05:22:39;;;;;;;;;;;;;;;15.69;80.58;101043.69;5074410;28;20332;-36
2021/07/24 05:25:05;;;;;;;;;;;;;;;15.76;80.75;101050.81;5074354;28;19917;-36
2021/07/24 05:27:30;;;;;;;;;;;;;;;15.80;80.02;101058.22;5074333;28;19988;-36
2021/07/24 05:29:56;;;;;;;;;;;;;;;15.84;80.74;101056.63;5074391;28;20272;-36
2021/07/24 05:32:21;;;;;;;;;;;;;;;15.91;80.57;101045.50;5074367;28;19942;-36
2021/07/24 05:34:46;;;;;;;;;;;;;;;15.89;80.60;101044.91;5074152;28;20339;-36
2021/07/24 05:37:11;;;;;;;;;;;;;;;15.96;80.18;101031.91;5074326;28;19919;-36
2021/07/24 05:39:36;;;;;;;;;;;;;;;15.98;80.45;101029.72;5074250;28;19915;-36
2021/07/24 05:42:02;;;;;;;;;;;;;;;16.01;80.95;101026.47;5074358;28;19916;-36
2021/07/24 05:44:27;;;;;;;;;;;;;;;16.06;80.39;101017.50;5073859;28;19969;-36
2021/07/24 05:46:52;;;;;;;;;;;;;;;16.11;80.71;101015.63;5072476;28;19915;-36
2021/07/24 05:49:17;;;;;;;;;;;;;;;16.23;79.63;101001.78;5074076;28;19915;-36
2021/07/24 05:51:43;;;;;;;;;;;;;;;16.17;80.23;101003.66;5073316;28;19915;-36
2021/07/24 05:54:10;;;;;;;;;;;;;;;16.12;80.27;100994.63;5073432;28;19916;-36
2021/07/24 05:56:35;;;;;;;;;;;;;;;16.13;80.02;100997.06;5073147;28;20328;-36
2021/07/24 05:59:01;;;;;;;;;;;;;;;16.17;80.40;101003.66;5073347;28;19909;-36
2021/07/24 06:01:26;;;;;;;;;;;;;;;16.13;80.55;100999.81;5073459;28;19908;-36
2021/07/24 06:03:51;;;;;;;;;;;;;;;16.20;80.53;100994.09;5073857;28;20340;-36
2021/07/24 06:06:16;;;;;;;;;;;;;;;16.23;80.60;100990.84;5073399;28;19908;-36
2021/07/24 06:08:42;;;;;;;;;;;;;;;16.31;80.10;100981.34;5073606;28;19908;-36
2021/07/24 06:11:07;;;;;;;;;;;;;;;16.40;80.34;100982.50;5073068;28;19919;-36
2021/07/24 06:13:32;;;;;;;;;;;;;;;16.50;79.91;100988.00;5073233;28;19915;-36
2021/07/24 06:15:58;;;;;;;;;;;;;;;16.50;79.79;100985.25;5073612;28;19908;-36
2021/07/24 06:18:25;;;;;;;;;;;;;;;16.61;79.53;100988.84;5073699;28;20363;-36
2021/07/24 06:20:50;;;;;;;;;;;;;;;16.63;78.97;100984.75;5074120;28;19909;-36
2021/07/24 06:23:16;;;;;;;;;;;;;;;16.68;79.27;100975.75;5073719;28;19915;-36
2021/07/24 06:25:44;;;;;;;;;;;;;;;16.65;79.07;100966.19;5074012;28;20299;-36
2021/07/24 06:28:10;;;;;;;;;;;;;;;16.66;79.92;100961.56;5073225;28;19950;-36
2021/07/24 06:30:35;;;;;;;;;;;;;;;16.71;79.24;100953.38;5073746;28;20245;-36
2021/07/24 06:33:00;;;;;;;;;;;;;;;16.79;79.48;100952.06;5073519;28;19909;-36
2021/07/24 06:35:26;;;;;;;;;;;;;;;16.79;79.18;100949.31;5073728;28;19908;-36
2021/07/24 06:37:51;;;;;;;;;;;;;;;16.78;78.86;100944.94;5073435;28;19908;-36
2021/07/24 06:40:17;;;;;;;;;;;;;;;16.86;78.63;100945.25;5073446;28;19912;-36
2021/07/24 06:42:42;;;;;;;;;;;;;;;16.94;79.05;100947.47;5073926;28;19908;-36
2021/07/24 06:45:07;;;;;;;;;;;;;;;16.96;78.80;100942.53;5073626;28;19908;-36
2021/07/24 06:47:32;;;;;;;;;;;;;;;17.05;78.59;100942.81;5076055;28;19908;-36
2021/07/24 06:49:58;;;;;;;;;;;;;;;17.11;78.40;100947.19;5077864;28;20253;-36
2021/07/24 06:52:24;;;;;;;;;;;;;;;17.14;78.27;100941.19;5077317;28;19912;-36
2021/07/24 06:54:49;;;;;;;;;;;;;;;17.15;77.93;100937.38;5077022;28;19919;-36
2021/07/24 06:57:14;;;;;;;;;;;;;;;17.19;78.12;100933.00;5077658;28;19908;-36
2021/07/24 06:59:40;;;;;;;;;;;;;;;17.16;78.36;100932.72;5077718;28;19909;-36
2021/07/24 07:02:05;;;;;;;;;;;;;;;17.22;77.96;100932.44;5077631;28;19923;-36
2021/07/24 07:04:30;;;;;;;;;;;;;;;17.26;77.83;100916.31;5077602;28;19914;-36
2021/07/24 07:06:56;;;;;;;;;;;;;;;17.38;78.26;100921.53;5077734;28;20221;-36
2021/07/24 07:09:21;;;;;;;;;;;;;;;17.38;77.48;100907.84;5077653;28;20003;-36
2021/07/24 07:11:46;;;;;;;;;;;;;;;17.47;77.32;100904.28;5076338;28;19954;-36
2021/07/24 07:14:11;;;;;;;;;;;;;;;17.54;76.81;100906.75;5077713;28;20016;-36
2021/07/24 07:16:37;;;;;;;;;;;;;;;17.63;77.35;100907.81;5076215;28;20300;-36
2021/07/24 07:19:04;;;;;;;;;;;;;;;17.78;76.71;100911.66;5076879;28;19908;-36
2021/07/24 07:21:29;;;;;;;;;;;;;;;17.81;76.43;100905.59;5077061;28;20237;-36
2021/07/24 07:23:55;;;;;;;;;;;;;;;17.89;76.63;100894.91;5076956;28;19915;-36
2021/07/24 07:26:23;;;;;;;;;;;;;;;18.05;76.35;100890.19;5076495;28;20272;-36
2021/07/24 07:28:49;;;;;;;;;;;;;;;18.23;75.86;100886.84;5077400;28;19952;-36
2021/07/24 07:31:14;;;;;;;;;;;;;;;18.30;75.83;100891.19;5076784;28;19923;-36
2021/07/24 07:33:40;;;;;;;;;;;;;;;18.36;75.65;100882.69;5076386;28;20367;-36
2021/07/24 07:36:05;;;;;;;;;;;;;;;18.47;75.99;100880.72;5076436;28;19909;-36
2021/07/24 07:38:31;;;;;;;;;;;;;;;18.59;74.81;100878.44;5076165;28;19915;-36
2021/07/24 07:40:56;;;;;;;;;;;;;;;18.63;74.58;100868.53;5076970;28;20426;-36
2021/07/24 07:43:21;;;;;;;;;;;;;;;18.63;74.74;100871.28;5076912;28;19997;-36
2021/07/24 07:45:46;;;;;;;;;;;;;;;18.80;74.41;100872.88;5076911;28;19919;-36
2021/07/24 07:48:11;;;;;;;;;;;;;;;18.86;74.15;100878.00;5076519;28;20003;-36
2021/07/24 07:50:37;;;;;;;;;;;;;;;19.01;74.16;100880.63;5076290;28;19948;-36
2021/07/24 07:53:04;;;;;;;;;;;;;;;19.05;73.37;100889.09;5075885;28;20019;-36
2021/07/24 07:55:29;;;;;;;;;;;;;;;19.05;74.01;100880.88;5075824;28;20394;-36
2021/07/24 07:57:54;;;;;;;;;;;;;;;19.07;73.84;100867.69;5075396;28;19908;-36
2021/07/24 08:00:19;;;;;;;;;;;;;;;19.07;73.53;100851.25;5075653;28;19966;-36
2021/07/24 08:02:49;;;;;;;;;;;;;;;19.09;73.55;100848.25;5076214;28;19916;-36
2021/07/24 08:05:14;;;;;;;;;;;;;;;19.08;73.20;100839.22;5075788;28;20271;-36
2021/07/24 08:07:40;;;;;;;;;;;;;;;19.09;73.48;100829.88;5075929;28;19995;-36
2021/07/24 08:10:05;;;;;;;;;;;;;;;19.19;73.85;100835.25;5076519;28;19915;-36
2021/07/24 08:12:30;;;;;;;;;;;;;;;19.34;73.67;100833.47;5075863;28;19924;-36
2021/07/24 08:14:55;;;;;;;;;;;;;;;19.46;73.21;100847.59;5076074;28;19912;-36
2021/07/24 08:17:21;;;;;;;;;;;;;;;19.44;72.82;100847.09;5076377;28;20293;-36
2021/07/24 08:19:46;;;;;;;;;;;;;;;19.43;72.96;100846.28;5075831;28;19916;-36
2021/07/24 08:22:11;;;;;;;;;;;;;;;19.48;72.42;100856.38;5076288;28;19915;-36
2021/07/24 08:24:36;;;;;;;;;;;;;;;19.51;72.46;100856.59;5075676;28;19908;-36
2021/07/24 08:27:02;;;;;;;;;;;;;;;19.50;71.87;100854.13;5076428;28;19908;-36
2021/07/24 08:29:27;;;;;;;;;;;;;;;19.43;71.97;100853.69;5075751;28;20329;-36
2021/07/24 08:31:52;;;;;;;;;;;;;;;19.48;72.50;100865.41;5075490;28;20324;-36
2021/07/24 08:34:18;;;;;;;;;;;;;;;19.54;72.29;100868.91;5075293;28;20360;-36
2021/07/24 08:36:43;;;;;;;;;;;;;;;19.57;72.10;100862.84;5075207;28;19909;-36
2021/07/24 08:39:09;;;;;;;;;;;;;;;19.62;72.40;100856.50;5075730;28;19912;-36
2021/07/24 08:41:38;;;;;;;;;;;;;;;19.68;72.11;100858.91;5075807;28;19916;-36
2021/07/24 08:44:03;;;;;;;;;;;;;;;19.74;72.18;100854.19;5075287;28;20233;-36
2021/07/24 08:46:28;;;;;;;;;;;;;;;19.79;71.67;100857.69;5075423;28;19938;-36
2021/07/24 08:48:54;;;;;;;;;;;;;;;19.79;71.73;100863.16;5075769;28;19961;-36
2021/07/24 08:51:20;;;;;;;;;;;;;;;19.80;71.75;100862.06;5075844;28;19935;-36
2021/07/24 08:53:45;;;;;;;;;;;;;;;19.84;71.93;100870.53;5075459;28;20062;-36
2021/07/24 08:56:23;;;;;;;;;;;;;;;19.89;72.07;100872.41;5075763;28;19966;-36
2021/07/24 08:58:51;;;;;;;;;;;;;;;19.93;72.20;100865.22;5075255;28;20012;-36
2021/07/24 09:01:17;;;;;;;;;;;;;;;19.94;71.75;100875.06;5075149;28;20078;-36
2021/07/24 09:03:42;;;;;;;;;;;;;;;20.01;71.93;100870.06;5074915;28;20013;-36
2021/07/24 09:06:08;;;;;;;;;;;;;;;20.08;71.12;100876.00;5075149;28;20305;-36
2021/07/24 09:08:34;;;;;;;;;;;;;;;20.15;71.47;100876.44;5074847;28;20310;-36
2021/07/24 09:10:59;;;;;;;;;;;;;;;20.19;70.80;100887.66;5074522;28;19908;-36
2021/07/24 09:13:24;;;;;;;;;;;;;;;20.26;71.02;100890.88;5074911;28;20046;-36
2021/07/24 09:15:52;;;;;;;;;;;;;;;20.37;71.21;100897.88;5075525;28;19908;-36
2021/07/24 09:18:17;;;;;;;;;;;;;;;20.47;71.08;100907.94;5074741;28;20238;-37
2021/07/24 09:20:45;;;;;;;;;;;;;;;20.56;70.43;100911.66;5074294;28;19954;-36
2021/07/24 09:23:25;;;;;;;;;;;;;;;20.63;70.16;100917.59;5074184;28;19913;-36
2021/07/24 09:25:50;;;;;;;;;;;;;;;20.70;70.22;100914.47;5074555;28;19908;-36
2021/07/24 09:28:15;;;;;;;;;;;;;;;20.77;70.42;100921.22;5074851;28;19915;-36
2021/07/24 09:30:40;;;;;;;;;;;;;;;20.85;69.79;100913.44;5074401;28;19908;-36
2021/07/24 09:33:06;;;;;;;;;;;;;;;20.90;70.10;100913.34;5074084;28;19909;-36
2021/07/24 09:35:37;;;;;;;;;;;;;;;20.99;69.38;100919.81;5074068;28;19908;-36
2021/07/24 09:38:07;;;;;;;;;;;;;;;21.05;69.11;100915.88;5074271;28;19909;-36
2021/07/24 09:40:35;;;;;;;;;;;;;;;21.07;69.67;100914.44;5074969;28;20260;-36
2021/07/24 09:43:00;;;;;;;;;;;;;;;21.13;69.91;100915.19;5074472;28;19908;-36
2021/07/24 09:45:25;;;;;;;;;;;;;;;21.18;69.80;100917.84;5074177;28;20268;-36
2021/07/24 09:47:55;;;;;;;;;;;;;;;21.19;69.00;100915.94;5074392;28;19974;-36
2021/07/24 09:50:20;;;;;;;;;;;;;;;21.16;68.21;100905.50;5074382;28;19912;-36
2021/07/24 09:52:52;;;;;;;;;;;;;;;21.16;69.57;100911.00;5072425;28;20298;-36
2021/07/24 09:55:19;;;;;;;;;;;;;;;21.18;69.48;100903.25;5073899;28;20344;-36
2021/07/24 09:57:44;;;;;;;;;;;;;;;21.21;69.82;100892.50;5072254;28;19908;-36
2021/07/24 10:00:23;;;;;;;;;;;;;;;21.24;69.01;100886.41;5073608;28;19915;-36
2021/07/24 10:02:58;;;;;;;;;;;;;;;21.21;68.28;100887.00;5073909;28;19918;-36
2021/07/24 10:05:31;;;;;;;;;;;;;;;21.17;67.82;100888.69;5074611;28;19908;-36
2021/07/24 10:07:58;;;;;;;;;;;;;;;21.07;68.17;100886.13;5073712;28;19908;-36
2021/07/24 10:10:24;;;;;;;;;;;;;;;21.01;69.30;100881.84;5073985;28;19912;-36
2021/07/24 10:12:49;;;;;;;;;;;;;;;20.98;69.35;100877.75;5074421;28;19912;-36
2021/07/24 10:15:15;;;;;;;;;;;;;;;21.01;69.56;100879.09;5074192;28;19908;-36
2021/07/24 10:17:40;;;;;;;;;;;;;;;20.95;67.97;100883.84;5074034;28;19908;-36
2021/07/24 10:20:06;;;;;;;;;;;;;;;20.96;69.16;100890.97;5073932;28;19956;-36
2021/07/24 10:22:31;;;;;;;;;;;;;;;21.02;69.50;100883.47;5073191;28;19909;-36
2021/07/24 10:24:58;;;;;;;;;;;;;;;21.08;69.10;100882.25;5073502;28;19908;-36
2021/07/24 10:27:24;;;;;;;;;;;;;;;21.15;69.33;100887.38;5073525;28;20010;-37
2021/07/24 10:29:51;;;;;;;;;;;;;;;21.20;69.74;100887.31;5073196;28;19961;-36
2021/07/24 10:32:17;;;;;;;;;;;;;;;21.19;69.55;100881.00;5073350;28;19912;-36
2021/07/24 10:34:49;;;;;;;;;;;;;;;21.17;69.29;100880.47;5073626;28;19913;-36
2021/07/24 10:37:30;;;;;;;;;;;;;;;21.13;68.99;100879.44;5073529;28;20332;-36
2021/07/24 10:40:15;;;;;;;;;;;;;;;21.18;69.73;100878.53;5073312;28;19935;-36
2021/07/24 10:42:40;;;;;;;;;;;;;;;21.20;69.48;100879.88;5072884;28;20283;-36
2021/07/24 10:45:25;;;;;;;;;;;;;;;21.19;69.53;100872.75;5073343;28;19915;-36
2021/07/24 10:48:09;;;;;;;;;;;;;;;21.20;69.53;100871.63;5073125;28;19997;-36
2021/07/24 10:50:49;;;;;;;;;;;;;;;21.25;69.67;100874.28;5073570;28;20336;-36
2021/07/24 10:53:15;;;;;;;;;;;;;;;21.27;69.55;100873.97;5074045;28;19919;-37
2021/07/24 10:55:40;;;;;;;;;;;;;;;21.32;69.92;100877.47;5073570;28;20263;-36
2021/07/24 10:58:06;;;;;;;;;;;;;;;21.30;69.68;100884.38;5072889;28;19908;-36
2021/07/24 11:00:32;;;;;;;;;;;;;;;21.33;69.58;100892.88;5073031;28;20419;-36
2021/07/24 11:02:57;;;;;;;;;;;;;;;21.38;69.54;100878.22;5072999;28;19908;-36
2021/07/24 11:05:29;;;;;;;;;;;;;;;21.38;68.96;100869.16;5073711;28;19930;-36
2021/07/24 11:07:54;;;;;;;;;;;;;;;21.41;69.48;100890.53;5073417;28;19908;-36
2021/07/24 11:10:20;;;;;;;;;;;;;;;21.39;68.96;100892.78;5073101;28;20322;-36
2021/07/24 11:12:46;;;;;;;;;;;;;;;21.38;69.95;100896.66;5073448;28;19937;-36
2021/07/24 11:15:15;;;;;;;;;;;;;;;21.30;69.17;100889.88;5073761;28;20018;-36
2021/07/24 11:17:40;;;;;;;;;;;;;;;21.20;68.83;100890.88;5073571;28;20400;-36
2021/07/24 11:20:08;;;;;;;;;;;;;;;21.21;69.33;100880.69;5072831;28;20015;-36
2021/07/24 11:22:35;;;;;;;;;;;;;;;21.25;69.36;100892.72;5073021;28;19919;-36
2021/07/24 11:25:01;;;;;;;;;;;;;;;21.28;69.20;100897.63;5072729;28;20356;-36
2021/07/24 11:27:26;;;;;;;;;;;;;;;21.30;69.16;100889.88;5073634;28;19920;-36
2021/07/24 11:29:51;;;;;;;;;;;;;;;21.32;69.34;100893.97;5073824;28;19908;-37
2021/07/24 11:32:24;;;;;;;;;;;;;;;21.36;69.38;100894.19;5073765;28;19912;-36
2021/07/24 11:34:55;;;;;;;;;;;;;;;21.37;69.29;100895.00;5076339;28;20261;-36
2021/07/24 11:37:32;;;;;;;;;;;;;;;21.39;69.58;100907.34;5077146;28;20007;-36
2021/07/24 11:39:57;;;;;;;;;;;;;;;21.33;68.00;100900.31;5076966;28;19916;-36
2021/07/24 11:42:22;;;;;;;;;;;;;;;21.34;68.90;100907.44;5076767;28;20361;-36
2021/07/24 11:44:48;;;;;;;;;;;;;;;21.33;69.06;100911.31;5076493;28;20283;-36
2021/07/24 11:47:15;;;;;;;;;;;;;;;21.37;69.29;100914.25;5076748;28;20344;-36
2021/07/24 11:49:43;;;;;;;;;;;;;;;21.41;69.18;100926.28;5076110;28;20276;-36
2021/07/24 11:52:09;;;;;;;;;;;;;;;21.44;69.05;100925.69;5076506;28;20287;-36
2021/07/24 11:54:35;;;;;;;;;;;;;;;21.46;70.04;100926.19;5076586;28;19912;-37
2021/07/24 11:57:01;;;;;;;;;;;;;;;21.48;69.09;100929.50;5076256;28;19919;-36
2021/07/24 11:59:27;;;;;;;;;;;;;;;21.50;69.33;100921.72;5076293;28;20299;-36
2021/07/24 12:01:53;;;;;;;;;;;;;;;21.55;69.83;100932.66;5076141;28;19966;-36
2021/07/24 12:04:19;;;;;;;;;;;;;;;21.58;69.68;100926.56;5074725;28;19952;-36
2021/07/24 12:07:11;;;;;;;;;;;;;;;21.62;69.39;100926.75;5076570;28;19916;-36
2021/07/24 12:09:37;;;;;;;;;;;;;;;21.67;69.66;100930.25;5074420;28;20028;-43
2021/07/24 12:12:02;;;;;;;;;;;;;;;21.70;69.65;100945.31;5076239;28;19960;-36
2021/07/24 12:14:28;;;;;;;;;;;;;;;21.72;69.84;100935.66;5075396;28;20101;-36
2021/07/24 12:17:10;;;;;;;;;;;;;;;21.74;68.89;100933.41;5075847;28;20389;-36
2021/07/24 12:19:37;;;;;;;;;;;;;;;21.75;69.05;100936.97;5075764;28;19908;-36
2021/07/24 12:22:13;;;;;;;;;;;;;;;21.76;68.99;100942.16;5075777;28;19957;-36
2021/07/24 12:24:39;;;;;;;;;;;;;;;21.74;68.87;100938.09;5075323;28;20003;-36
2021/07/24 12:27:09;;;;;;;;;;;;;;;21.73;68.81;100931.78;5075468;28;19997;-36
2021/07/24 12:29:58;;;;;;;;;;;;;;;21.74;68.95;100927.06;5075869;28;19930;-37
2021/07/24 12:32:24;;;;;;;;;;;;;;;21.76;69.15;100924.81;5076132;28;19908;-36
2021/07/24 12:34:49;;;;;;;;;;;;;;;21.74;68.16;100927.91;5075596;28;19908;-36
2021/07/24 12:37:31;;;;;;;;;;;;;;;21.74;68.40;100916.06;5075433;28;20054;-36